Time;durP1;ratioP1;P1;durP2;ratioP2;P2;SDS_P1;SDS_P2;PMS_P1;PMS_P2;Temp;Humidity;BMP_temperature;BMP_pressure;BME280_temperature;BME280_humidity;BME280_pressure;Samples;Min_cycle;Max_cycle;Signal;HPM_P1;HPM_P2
2022/10/06 00:00:54;;;;;;;;;3.67;0.00;;;;;15.87;64.45;102045.69;5024353;28;46173;-59
2022/10/06 00:03:23;;;;;;;;;1.33;1.00;;;;;15.86;64.55;102052.00;5021769;28;46910;-59
2022/10/06 00:05:50;;;;;;;;;4.00;0.00;;;;;15.83;64.49;102057.53;5018767;28;45488;-62
2022/10/06 00:08:16;;;;;;;;;1.67;1.67;;;;;15.76;64.48;102053.47;5026491;28;45466;-59
2022/10/06 00:10:41;;;;;;;;;2.00;1.00;;;;;15.73;64.53;102059.00;5019096;28;45439;-62
2022/10/06 00:13:07;;;;;;;;;2.00;0.00;;;;;15.69;64.62;102070.84;5033095;28;45554;-60
2022/10/06 00:15:33;;;;;;;;;0.67;0.00;;;;;15.63;64.71;102066.69;5033358;28;47247;-58
2022/10/06 00:17:59;;;;;;;;;1.00;1.00;;;;;15.59;64.98;102067.78;5030761;28;45492;-62
2022/10/06 00:20:26;;;;;;;;;1.00;1.00;;;;;15.57;64.88;102072.34;5024987;28;45402;-59
2022/10/06 00:22:52;;;;;;;;;0.00;0.00;;;;;15.54;65.03;102085.03;5049254;28;45464;-64
2022/10/06 00:25:20;;;;;;;;;1.33;0.00;;;;;15.47;64.92;102083.63;5022066;28;45558;-60
2022/10/06 00:27:48;;;;;;;;;1.33;1.00;;;;;15.48;65.32;102088.03;5030322;28;46094;-58
2022/10/06 00:30:16;;;;;;;;;4.67;1.00;;;;;15.47;65.28;102095.22;5025298;28;45431;-56
2022/10/06 00:32:50;;;;;;;;;2.33;1.00;;;;;15.46;65.17;102097.97;5024815;28;45497;-58
2022/10/06 00:35:15;;;;;;;;;2.33;1.00;;;;;15.43;65.36;102106.19;5022272;28;46172;-57
2022/10/06 00:37:41;;;;;;;;;3.67;1.00;;;;;15.35;65.25;102102.09;5037516;27;45269;-57
2022/10/06 00:40:08;;;;;;;;;1.00;1.00;;;;;15.37;65.59;102114.56;5019197;28;45441;-58
2022/10/06 00:42:48;;;;;;;;;6.00;0.00;;;;;15.30;65.58;102117.53;5029749;28;45343;-61
2022/10/06 00:45:15;;;;;;;;;1.00;1.00;;;;;15.28;65.63;102116.75;5016868;28;45308;-62
2022/10/06 00:47:41;;;;;;;;;0.00;0.00;;;;;15.24;65.39;102120.56;5018694;28;45385;-64
2022/10/06 00:50:10;;;;;;;;;1.33;0.00;;;;;15.25;65.50;102121.44;5016566;28;45316;-58
2022/10/06 00:52:38;;;;;;;;;1.33;0.00;;;;;15.23;65.43;102124.16;5003157;28;45498;-59
2022/10/06 00:55:08;;;;;;;;;2.67;1.00;;;;;15.16;65.53;102112.03;5016318;28;46196;-60
2022/10/06 00:57:38;;;;;;;;;1.00;1.00;;;;;15.20;65.95;102121.63;5014211;28;45361;-58
2022/10/06 01:00:05;;;;;;;;;2.00;1.00;;;;;15.22;65.51;102121.56;5017565;28;45312;-62
2022/10/06 01:02:40;;;;;;;;;0.67;0.67;;;;;15.16;65.48;102112.03;5025440;28;45571;-59
2022/10/06 01:05:10;;;;;;;;;1.00;1.00;;;;;15.15;65.56;102114.78;5019355;28;47155;-56
2022/10/06 01:07:36;;;;;;;;;2.67;0.67;;;;;15.18;65.43;102131.56;5033363;28;45440;-59
2022/10/06 01:10:02;;;;;;;;;1.00;1.00;;;;;15.09;65.75;102124.00;5023652;28;45697;-62
2022/10/06 01:12:29;;;;;;;;;2.67;1.00;;;;;15.09;65.66;102124.00;5040382;28;45681;-60
2022/10/06 01:14:55;;;;;;;;;2.33;2.33;;;;;15.17;65.51;102139.69;5031900;28;47618;-57
2022/10/06 01:17:31;;;;;;;;;0.00;0.00;;;;;15.17;65.51;102145.06;5029842;28;45534;-59
2022/10/06 01:20:07;;;;;;;;;3.00;0.00;;;;;15.16;65.70;102141.50;5017638;28;45573;-62
2022/10/06 01:22:43;;;;;;;;;2.00;0.00;;;;;15.13;65.83;102143.47;5018076;28;45551;-62
2022/10/06 01:25:11;;;;;;;;;3.33;1.00;;;;;15.09;65.77;102137.38;5020781;28;46132;-62
2022/10/06 01:27:40;;;;;;;;;8.67;1.00;;;;;15.07;65.85;102144.63;5017232;28;45351;-65
2022/10/06 01:30:08;;;;;;;;;2.67;0.67;;;;;15.06;66.12;102153.63;5015951;28;45446;-63
2022/10/06 01:32:36;;;;;;;;;2.67;1.00;;;;;15.06;65.52;102159.00;5027200;28;45461;-65
2022/10/06 01:35:02;;;;;;;;;1.00;1.00;;;;;14.99;65.17;102152.22;5015637;28;46025;-65
2022/10/06 01:37:28;;;;;;;;;3.33;0.33;;;;;15.02;65.81;102162.78;5018245;28;45271;-63
2022/10/06 01:39:53;;;;;;;;;2.00;2.00;;;;;14.99;65.75;102166.47;5017260;28;45420;-64
2022/10/06 01:42:18;;;;;;;;;1.00;1.00;;;;;14.94;65.81;102157.78;5018744;28;45999;-63
2022/10/06 01:44:44;;;;;;;;;1.67;1.33;;;;;14.92;65.64;102157.00;4998749;28;46095;-63
2022/10/06 01:47:09;;;;;;;;;1.00;1.00;;;;;14.92;65.34;102166.84;5023920;28;45232;-64
2022/10/06 01:49:34;;;;;;;;;4.00;1.00;;;;;14.88;65.31;102167.94;5031201;28;45516;-61
2022/10/06 01:52:00;;;;;;;;;4.33;0.00;;;;;14.84;66.05;102163.66;5027172;28;45490;-63
2022/10/06 01:54:26;;;;;;;;;1.00;1.00;;;;;14.80;65.32;102160.28;5026465;28;45570;-63
2022/10/06 01:56:52;;;;;;;;;0.33;0.33;;;;;14.81;65.21;102164.69;5019225;28;45710;-65
2022/10/06 01:59:17;;;;;;;;;1.00;1.00;;;;;14.79;65.18;102171.94;5014863;28;45466;-60
2022/10/06 02:01:43;;;;;;;;;1.00;1.00;;;;;14.77;65.59;102173.81;5017771;28;45546;-64
2022/10/06 02:04:08;;;;;;;;;3.33;0.33;;;;;14.70;65.45;102167.88;5018440;28;46013;-61
2022/10/06 02:06:34;;;;;;;;;7.67;1.33;;;;;14.75;65.53;102181.06;5031046;28;46440;-59
2022/10/06 02:08:59;;;;;;;;;1.00;1.00;;;;;14.71;65.37;102180.34;5018343;28;45459;-60
2022/10/06 02:11:26;;;;;;;;;1.00;1.00;;;;;14.66;64.90;102181.50;5018324;28;45604;-59
2022/10/06 02:13:51;;;;;;;;;3.33;1.00;;;;;14.70;64.93;102181.28;5023331;28;45339;-58
2022/10/06 02:16:17;;;;;;;;;1.00;1.00;;;;;14.69;64.78;102186.69;5016178;28;45399;-59
2022/10/06 02:18:42;;;;;;;;;0.67;0.00;;;;;14.64;64.70;102178.91;5023864;28;46977;-59
2022/10/06 02:21:16;;;;;;;;;1.00;1.00;;;;;14.67;65.10;102194.81;5024466;28;45548;-59
2022/10/06 02:23:42;;;;;;;;;2.00;0.33;;;;;14.65;64.61;102196.69;5031528;28;46037;-62
2022/10/06 02:26:08;;;;;;;;;2.67;0.33;;;;;14.58;64.37;102187.22;5017671;28;45274;-59
2022/10/06 02:28:34;;;;;;;;;3.33;1.00;;;;;14.60;64.78;102198.75;5012457;28;45309;-59
2022/10/06 02:31:07;;;;;;;;;3.67;0.33;;;;;14.60;64.59;102197.88;5018850;28;45561;-62
2022/10/06 02:33:34;;;;;;;;;0.00;0.00;;;;;14.59;64.49;102204.16;5017854;28;46335;-59
2022/10/06 02:36:00;;;;;;;;;3.00;1.00;;;;;14.56;64.58;102209.66;5031025;28;45464;-63
2022/10/06 02:38:26;;;;;;;;;3.00;1.67;;;;;14.52;63.88;102206.25;5033595;28;45334;-60
2022/10/06 02:40:52;;;;;;;;;0.00;0.00;;;;;14.50;64.37;102207.28;5019412;28;46034;-60
2022/10/06 02:43:18;;;;;;;;;2.33;2.00;;;;;14.50;64.68;102213.50;5021726;28;46033;-62
2022/10/06 02:45:52;;;;;;;;;1.00;1.00;;;;;14.49;64.50;102217.13;5021690;28;45474;-61
2022/10/06 02:48:17;;;;;;;;;1.33;1.33;;;;;14.49;64.34;102216.25;5020982;28;45523;-62
2022/10/06 02:50:44;;;;;;;;;2.00;1.00;;;;;14.43;64.18;102217.34;5027766;28;47017;-58
2022/10/06 02:53:09;;;;;;;;;5.00;2.67;;;;;14.42;64.22;102215.59;5021912;28;46890;-60
2022/10/06 02:55:35;;;;;;;;;7.00;0.00;;;;;14.37;64.37;102209.63;5027974;28;45399;-59
2022/10/06 02:58:02;;;;;;;;;2.00;1.00;;;;;14.36;63.95;102215.91;5017309;28;45296;-59
2022/10/06 03:00:28;;;;;;;;;4.33;1.00;;;;;14.35;63.95;102216.84;5015555;28;45216;-57
2022/10/06 03:02:53;;;;;;;;;2.00;1.00;;;;;14.28;64.34;102216.25;5030960;28;45495;-58
2022/10/06 03:05:19;;;;;;;;;2.67;1.00;;;;;14.33;64.35;102226.75;5020848;28;45542;-59
2022/10/06 03:07:44;;;;;;;;;0.00;0.00;;;;;14.30;64.18;102226.88;5018590;28;45335;-58
2022/10/06 03:10:10;;;;;;;;;4.33;2.00;;;;;14.23;63.86;102220.09;5018270;28;45634;-58
2022/10/06 03:12:35;;;;;;;;;5.33;2.00;;;;;14.29;64.60;102233.16;5022215;28;46007;-62
2022/10/06 03:15:01;;;;;;;;;2.00;2.00;;;;;14.28;64.99;102239.47;5022326;28;45446;-58
2022/10/06 03:17:26;;;;;;;;;1.00;1.00;;;;;14.31;64.61;102244.66;5024522;28;45458;-60
2022/10/06 03:19:53;;;;;;;;;1.00;1.00;;;;;14.25;65.03;102236.94;5026333;28;45603;-62
2022/10/06 03:22:18;;;;;;;;;3.67;1.00;;;;;14.25;64.41;102244.97;5029694;28;46053;-63
2022/10/06 03:24:43;;;;;;;;;2.00;0.67;;;;;14.20;65.00;102239.81;5021877;28;45470;-60
2022/10/06 03:27:09;;;;;;;;;2.00;1.67;;;;;14.23;64.29;102237.00;5013304;28;48162;-64
2022/10/06 03:29:35;;;;;;;;;2.33;1.00;;;;;14.22;64.12;102247.78;5022721;28;45488;-59
2022/10/06 03:32:01;;;;;;;;;1.33;1.33;;;;;14.21;64.33;102248.72;5032014;28;45589;-62
2022/10/06 03:34:26;;;;;;;;;3.00;0.33;;;;;14.20;64.64;102252.34;5024682;28;45359;-60
2022/10/06 03:36:51;;;;;;;;;2.33;1.00;;;;;14.11;64.62;102249.13;5020165;28;45368;-60
2022/10/06 03:39:17;;;;;;;;;2.00;2.00;;;;;14.13;64.39;102251.72;5015522;28;45593;-61
2022/10/06 03:41:42;;;;;;;;;0.33;0.33;;;;;14.13;64.41;102265.09;5021418;28;45751;-60
2022/10/06 03:44:08;;;;;;;;;1.00;1.00;;;;;14.12;64.49;102272.25;5041338;28;45316;-63
2022/10/06 03:46:34;;;;;;;;;3.00;1.00;;;;;14.10;64.70;102276.81;5028489;28;45330;-57
2022/10/06 03:49:00;;;;;;;;;1.00;1.00;;;;;14.09;64.63;102280.44;5020547;28;45535;-60
2022/10/06 03:51:34;;;;;;;;;0.67;0.67;;;;;14.08;64.59;102286.72;5039287;28;47599;-60
2022/10/06 03:54:00;;;;;;;;;1.00;1.00;;;;;14.07;64.53;102287.66;5022467;28;45414;-62
2022/10/06 03:56:30;;;;;;;;;2.00;1.00;;;;;13.99;64.43;102276.41;5016782;28;45418;-59
2022/10/06 03:59:00;;;;;;;;;1.00;1.00;;;;;13.98;64.86;102282.69;5015204;28;45631;-59
2022/10/06 04:01:28;;;;;;;;;0.00;0.00;;;;;13.93;64.97;102279.34;5027662;28;45338;-60
2022/10/06 04:03:56;;;;;;;;;3.33;1.00;;;;;13.94;64.59;102291.81;5030576;28;45354;-63
2022/10/06 04:06:23;;;;;;;;;3.33;2.00;;;;;13.99;64.60;102303.16;5019675;28;45359;-62
2022/10/06 04:08:50;;;;;;;;;2.67;1.00;;;;;13.93;65.30;102306.09;5028661;28;45250;-61
2022/10/06 04:11:22;;;;;;;;;3.33;0.67;;;;;13.85;65.35;102294.88;5023535;28;46252;-61
2022/10/06 04:13:53;;;;;;;;;3.00;0.00;;;;;13.85;64.28;102300.22;5019836;28;45763;-59
2022/10/06 04:16:25;;;;;;;;;3.33;0.67;;;;;13.90;64.75;102319.59;5018350;28;45770;-63
2022/10/06 04:18:53;;;;;;;;;2.00;0.33;;;;;13.90;65.42;102324.06;5023693;28;45442;-60
2022/10/06 04:21:19;;;;;;;;;3.33;2.00;;;;;13.86;65.37;102315.31;5016240;28;46173;-58
2022/10/06 04:23:45;;;;;;;;;3.33;1.00;;;;;13.82;65.44;102316.41;5019980;28;45371;-57
2022/10/06 04:26:17;;;;;;;;;2.00;1.33;;;;;13.78;65.30;102322.78;5015602;28;45284;-58
2022/10/06 04:28:44;;;;;;;;;2.00;1.33;;;;;13.77;65.33;102329.06;5017816;28;45500;-60
2022/10/06 04:31:12;;;;;;;;;1.00;0.00;;;;;13.77;65.22;102329.06;5016270;28;46259;-56
2022/10/06 04:33:38;;;;;;;;;3.67;2.33;;;;;13.71;65.19;102324.00;5018227;28;45581;-60
2022/10/06 04:36:06;;;;;;;;;1.00;1.00;;;;;13.76;65.75;102338.03;5038477;28;45637;-61
2022/10/06 04:38:35;;;;;;;;;3.00;0.00;;;;;13.70;65.55;102332.94;5032420;28;45425;-63
2022/10/06 04:41:12;;;;;;;;;4.00;1.00;;;;;13.70;65.51;102339.16;5028886;28;45332;-64
2022/10/06 04:43:38;;;;;;;;;2.00;0.00;;;;;13.70;65.51;102339.16;5018080;28;45328;-64
2022/10/06 04:46:04;;;;;;;;;2.00;1.00;;;;;13.67;65.60;102338.41;5026985;28;45201;-62
2022/10/06 04:48:31;;;;;;;;;1.00;1.00;;;;;13.68;65.73;102341.03;5022094;28;45697;-63
2022/10/06 04:50:59;;;;;;;;;1.33;1.33;;;;;13.64;65.48;102338.53;5015974;28;46395;-60
2022/10/06 04:53:26;;;;;;;;;4.00;1.00;;;;;13.64;65.63;102344.75;5018403;28;45428;-61
2022/10/06 04:55:58;;;;;;;;;1.33;0.67;;;;;13.64;66.29;102344.75;5025242;28;45395;-61
2022/10/06 04:58:24;;;;;;;;;2.00;2.00;;;;;13.62;66.18;102351.97;5017844;28;45423;-58
2022/10/06 05:00:50;;;;;;;;;5.00;1.67;;;;;13.61;66.17;102346.69;5012891;28;47189;-62
2022/10/06 05:03:15;;;;;;;;;1.00;0.33;;;;;13.52;66.05;102335.44;5034473;28;45501;-63
2022/10/06 05:05:40;;;;;;;;;4.00;1.67;;;;;13.44;65.81;102318.84;5015123;28;45562;-62
2022/10/06 05:08:06;;;;;;;;;1.00;1.00;;;;;13.55;65.73;102340.66;5026219;28;45590;-63
2022/10/06 05:10:31;;;;;;;;;1.00;1.00;;;;;13.62;65.51;102348.44;5021729;28;45465;-58
2022/10/06 05:12:57;;;;;;;;;5.67;2.00;;;;;13.55;66.01;102346.03;5023264;28;45391;-60
2022/10/06 05:15:22;;;;;;;;;3.00;3.00;;;;;13.63;65.71;102360.84;5023991;28;45511;-63
2022/10/06 05:17:47;;;;;;;;;5.33;1.67;;;;;13.56;65.65;102347.75;5031905;28;45292;-65
2022/10/06 05:20:13;;;;;;;;;5.67;3.67;;;;;13.57;65.62;102360.19;5026670;28;46273;-63
2022/10/06 05:22:41;;;;;;;;;3.00;1.00;;;;;13.61;65.96;102354.72;5018926;28;45457;-63
2022/10/06 05:25:07;;;;;;;;;2.67;0.33;;;;;13.56;65.73;102352.22;5018733;28;45308;-62
2022/10/06 05:27:32;;;;;;;;;2.33;1.33;;;;;13.57;65.75;102357.50;5015514;28;45527;-63
2022/10/06 05:29:58;;;;;;;;;2.33;1.00;;;;;13.59;65.63;102368.13;5031740;28;46060;-64
2022/10/06 05:32:23;;;;;;;;;5.00;1.00;;;;;13.57;66.17;102364.66;5035063;28;45621;-60
2022/10/06 05:34:49;;;;;;;;;3.33;1.33;;;;;13.53;66.26;102363.91;5025957;28;45446;-64
2022/10/06 05:37:14;;;;;;;;;8.00;2.00;;;;;13.54;66.12;102376.34;5018882;28;45495;-62
2022/10/06 05:39:39;;;;;;;;;2.67;1.00;;;;;13.54;66.25;102370.09;5028620;28;45450;-59
2022/10/06 05:42:05;;;;;;;;;4.33;1.00;;;;;13.53;65.82;102369.25;5030654;28;45427;-59
2022/10/06 05:44:30;;;;;;;;;1.00;1.00;;;;;13.49;66.40;102375.66;5027089;28;45332;-56
2022/10/06 05:46:55;;;;;;;;;2.00;1.00;;;;;13.45;65.95;102365.16;5020342;28;45491;-60
2022/10/06 05:49:21;;;;;;;;;3.67;2.00;;;;;13.38;66.34;102351.16;5021279;28;45416;-64
2022/10/06 05:51:47;;;;;;;;;1.67;1.00;;;;;13.46;65.57;102373.09;5037743;28;45291;-60
2022/10/06 05:54:13;;;;;;;;;3.33;2.00;;;;;13.40;66.24;102365.31;5024107;28;45435;-61
2022/10/06 05:56:38;;;;;;;;;4.33;1.00;;;;;13.46;66.10;102378.44;5020005;28;45459;-61
2022/10/06 05:59:04;;;;;;;;;3.67;2.00;;;;;13.47;66.18;102390.88;5022321;28;47182;-62
2022/10/06 06:01:33;;;;;;;;;2.67;2.67;;;;;13.46;66.51;102388.28;5037004;28;45234;-60
2022/10/06 06:04:01;;;;;;;;;1.33;0.33;;;;;13.47;66.59;102400.72;5022190;28;45483;-61
2022/10/06 06:06:33;;;;;;;;;4.00;2.00;;;;;13.46;66.26;102399.84;5019589;28;45476;-63
2022/10/06 06:09:01;;;;;;;;;3.00;2.00;;;;;13.45;66.62;102395.44;5015508;28;46965;-58
2022/10/06 06:11:30;;;;;;;;;8.00;2.00;;;;;13.44;65.80;102384.78;5032004;28;45444;-67
2022/10/06 06:14:00;;;;;;;;;3.00;1.00;;;;;13.44;66.37;102383.00;5036870;28;45386;-61
2022/10/06 06:16:29;;;;;;;;;3.33;2.00;;;;;13.51;66.41;102403.19;5030154;28;45427;-67
2022/10/06 06:18:56;;;;;;;;;2.00;1.00;;;;;13.45;65.78;102398.09;5017456;28;45328;-66
2022/10/06 06:21:22;;;;;;;;;7.00;2.00;;;;;13.49;66.14;102410.41;5034149;28;45603;-62
2022/10/06 06:23:48;;;;;;;;;5.33;2.00;;;;;13.48;66.52;102400.63;5033898;28;45539;-65
2022/10/06 06:26:22;;;;;;;;;3.00;2.00;;;;;13.53;66.07;102405.78;5036010;28;45792;-61
2022/10/06 06:28:49;;;;;;;;;4.67;3.33;;;;;13.54;66.46;102418.22;5036216;28;45391;-64
2022/10/06 06:31:26;;;;;;;;;3.33;1.00;;;;;13.54;66.43;102419.13;5029878;28;45499;-58
2022/10/06 06:33:57;;;;;;;;;4.00;2.33;;;;;13.56;66.22;102417.25;5012825;28;45443;-68
2022/10/06 06:36:39;;;;;;;;;7.33;2.33;;;;;13.56;66.40;102417.25;5026676;28;45351;-62
2022/10/06 06:39:09;;;;;;;;;4.67;3.33;;;;;13.57;65.76;102416.31;5021219;28;46906;-66
2022/10/06 06:41:38;;;;;;;;;8.00;3.00;;;;;13.56;65.95;102411.91;5015309;28;45769;-70
2022/10/06 06:44:07;;;;;;;;;7.33;1.33;;;;;13.58;65.93;102426.09;5015839;28;45356;-64
2022/10/06 06:46:33;;;;;;;;;5.33;2.00;;;;;13.68;66.19;102433.75;5016454;28;45438;-63
2022/10/06 06:49:03;;;;;;;;;3.00;3.00;;;;;13.70;66.25;102435.44;5015047;28;46837;-69
2022/10/06 06:51:39;;;;;;;;;3.00;2.00;;;;;13.75;66.25;102443.25;5016387;28;45198;-64
2022/10/06 06:54:05;;;;;;;;;11.00;2.67;;;;;13.73;65.77;102442.44;5015678;28;45339;-67
2022/10/06 06:56:35;;;;;;;;;3.67;1.67;;;;;13.77;65.59;102444.06;5016281;27;45508;-59
2022/10/06 06:59:09;;;;;;;;;5.00;2.67;;;;;13.79;65.50;102450.22;5016185;28;46030;-58
2022/10/06 07:01:35;;;;;;;;;6.33;1.67;;;;;13.82;65.68;102456.34;5016208;28;45375;-66
2022/10/06 07:04:01;;;;;;;;;3.67;2.00;;;;;13.84;65.67;102458.94;5016928;28;45818;-62
2022/10/06 07:06:29;;;;;;;;;3.00;3.00;;;;;13.86;65.06;102462.41;5017848;28;45482;-64
2022/10/06 07:08:56;;;;;;;;;9.00;2.00;;;;;13.83;65.48;102458.06;5014975;28;48939;-64
2022/10/06 07:11:26;;;;;;;;;5.33;2.00;;;;;13.88;64.96;102471.25;5015916;28;45452;-67
2022/10/06 07:13:54;;;;;;;;;2.33;2.00;;;;;13.93;65.60;102473.72;5016299;28;45357;-64
2022/10/06 07:27:21;;;;;;;;;6.67;2.00;;;;;14.05;64.46;102482.13;5024163;28;45470;-67
2022/10/06 07:29:47;;;;;;;;;3.00;2.00;;;;;14.08;64.74;102495.41;5023351;28;46152;-63
2022/10/06 07:32:12;;;;;;;;;5.00;2.67;;;;;14.03;64.56;102481.31;5036247;28;45347;-68
2022/10/06 07:34:40;;;;;;;;;6.00;2.33;;;;;14.11;64.50;102502.44;5021744;28;45431;-65
2022/10/06 07:37:05;;;;;;;;;2.00;2.00;;;;;14.12;64.34;102493.47;5015997;28;45486;-61
2022/10/06 07:39:31;;;;;;;;;5.00;1.33;;;;;14.04;64.45;102485.75;5015669;28;45304;-66
2022/10/06 07:41:56;;;;;;;;;1.67;1.00;;;;;14.16;64.32;102505.78;5014704;28;45311;-58
2022/10/06 07:44:22;;;;;;;;;2.33;2.33;;;;;14.13;64.98;102501.44;5016162;28;45247;-62
2022/10/06 07:46:47;;;;;;;;;9.67;3.00;;;;;14.18;64.41;102504.78;5016793;28;45290;-64
2022/10/06 07:49:16;;;;;;;;;6.33;2.00;;;;;14.18;64.35;102499.44;5014587;28;45396;-61
2022/10/06 07:51:42;;;;;;;;;4.00;2.00;;;;;14.29;64.16;102508.81;5015751;28;45419;-58
2022/10/06 07:54:08;;;;;;;;;3.67;2.33;;;;;14.31;64.08;102513.19;5015684;28;45344;-61
2022/10/06 07:56:33;;;;;;;;;4.67;2.00;;;;;14.32;63.81;102514.03;5015836;28;45406;-61
2022/10/06 07:59:04;;;;;;;;;5.00;1.67;;;;;14.33;64.07;102515.81;5016052;28;46127;-57
2022/10/06 08:01:30;;;;;;;;;2.00;1.67;;;;;14.26;63.31;102499.13;5015869;28;45297;-58
2022/10/06 08:03:55;;;;;;;;;3.67;3.33;;;;;14.38;63.60;102519.16;5015369;28;45389;-59
2022/10/06 08:06:23;;;;;;;;;10.00;4.00;;;;;14.37;66.41;102517.44;5024136;28;45441;-54
2022/10/06 08:08:51;;;;;;;;;2.67;1.67;;;;;14.58;65.70;102527.25;5039129;28;46131;-52
2022/10/06 08:11:17;;;;;;;;;3.00;1.00;;;;;14.64;63.99;102529.69;5032776;28;45503;-62
2022/10/06 08:13:46;;;;;;;;;4.00;4.00;;;;;14.65;63.25;102526.06;5030396;28;45347;-60
2022/10/06 08:16:15;;;;;;;;;10.00;3.00;;;;;14.67;63.14;102531.34;5038552;28;45363;-57
2022/10/06 08:18:41;;;;;;;;;5.00;2.00;;;;;14.68;63.31;102533.97;5022799;28;46313;-64
2022/10/06 08:21:12;;;;;;;;;6.33;2.33;;;;;14.73;63.18;102544.50;5034380;28;45293;-63
2022/10/06 08:23:41;;;;;;;;;8.67;2.00;;;;;14.74;63.35;102539.09;5018687;28;45283;-64
2022/10/06 08:26:07;;;;;;;;;3.00;2.00;;;;;14.78;62.94;102534.47;5019073;28;45272;-61
2022/10/06 08:28:34;;;;;;;;;2.67;2.00;;;;;14.80;62.86;102537.06;5018296;28;45208;-58
2022/10/06 08:31:10;;;;;;;;;5.33;1.33;;;;;14.81;62.79;102549.53;5018462;28;45251;-61
2022/10/06 08:33:38;;;;;;;;;4.67;2.00;;;;;14.79;62.71;102546.91;5018421;28;45327;-60
2022/10/06 08:36:07;;;;;;;;;2.33;2.33;;;;;14.85;62.39;102551.16;5018854;28;45440;-58
2022/10/06 08:38:34;;;;;;;;;2.00;2.00;;;;;14.96;62.37;102554.22;5018181;28;45548;-61
2022/10/06 08:41:00;;;;;;;;;5.33;3.33;;;;;15.05;61.92;102554.69;5018735;28;45446;-64
2022/10/06 08:43:26;;;;;;;;;5.00;3.67;;;;;14.96;61.74;102539.00;5016991;28;45596;-60
2022/10/06 08:45:58;;;;;;;;;3.33;2.00;;;;;15.15;62.03;102556.97;5019415;28;45454;-58
2022/10/06 08:48:28;;;;;;;;;3.00;3.00;;;;;15.21;61.44;102562.94;5017166;28;46589;-58
2022/10/06 08:51:00;;;;;;;;;3.00;1.33;;;;;15.28;61.92;102561.72;5018348;28;45332;-59
2022/10/06 08:53:45;;;;;;;;;6.00;4.00;;;;;15.39;61.71;102563.94;5018762;28;45312;-60
2022/10/06 08:56:29;;;;;;;;;10.67;3.33;;;;;15.48;61.52;102568.88;5018602;28;45248;-62
2022/10/06 08:58:57;;;;;;;;;4.33;4.00;;;;;15.62;60.85;102570.94;5029210;28;45426;-60
2022/10/06 09:01:32;;;;;;;;;2.33;1.67;;;;;15.70;60.78;102567.94;4998503;28;45405;-64
2022/10/06 09:04:03;;;;;;;;;3.67;2.00;;;;;15.83;60.51;102569.97;4998794;28;45862;-61
2022/10/06 09:07:06;;;;;;;;;9.00;1.00;;;;;15.96;60.54;102572.94;4998570;28;45162;-60
2022/10/06 09:09:53;;;;;;;;;4.67;3.00;;;;;16.09;59.99;102570.56;4998579;28;45450;-59
2022/10/06 09:12:27;;;;;;;;;5.00;3.00;;;;;16.19;59.04;102569.16;4998414;28;45254;-67
2022/10/06 09:15:11;;;;;;;;;3.00;1.00;;;;;16.21;58.72;102569.97;4998291;28;45242;-58
2022/10/06 09:17:45;;;;;;;;;7.00;4.33;;;;;16.24;58.94;102569.81;4998078;28;45626;-64
2022/10/06 09:20:19;;;;;;;;;2.67;2.67;;;;;16.26;58.95;102565.22;4997872;28;46221;-64
2022/10/06 09:22:48;;;;;;;;;8.67;3.33;;;;;16.33;59.14;102572.06;5013425;28;45423;-62
2022/10/06 09:25:17;;;;;;;;;4.00;3.33;;;;;16.43;58.46;102576.03;4998265;28;45221;-58
2022/10/06 09:27:49;;;;;;;;;1.33;1.33;;;;;16.52;58.58;102575.56;4998071;28;45437;-63
2022/10/06 09:30:18;;;;;;;;;5.67;1.00;;;;;16.61;58.80;102562.63;4997710;28;46615;-67
2022/10/06 09:32:47;;;;;;;;;4.00;2.33;;;;;16.70;58.44;102567.59;4997955;28;45487;-63
2022/10/06 09:35:24;;;;;;;;;2.33;2.33;;;;;16.76;58.00;102578.88;5016190;28;45496;-64
2022/10/06 09:37:55;;;;;;;;;4.67;3.00;;;;;16.80;57.92;102579.63;5018266;28;45421;-59
2022/10/06 09:40:38;;;;;;;;;4.67;1.33;;;;;16.86;57.63;102578.41;5017906;28;47029;-60
2022/10/06 09:43:17;;;;;;;;;7.33;4.00;;;;;16.81;57.42;102575.97;5017186;28;45340;-64
2022/10/06 09:45:42;;;;;;;;;6.67;3.00;;;;;16.81;57.84;102575.97;5017429;28;45376;-62
2022/10/06 09:48:25;;;;;;;;;1.00;1.00;;;;;16.89;58.29;102572.88;5032817;28;45541;-61
2022/10/06 09:51:07;;;;;;;;;1.67;1.00;;;;;16.91;58.01;102571.84;5017830;28;45466;-57
2022/10/06 09:53:34;;;;;;;;;3.67;2.67;;;;;16.82;57.27;102574.16;5032836;28;45389;-58
2022/10/06 09:56:03;;;;;;;;;2.00;1.00;;;;;16.73;58.02;102562.06;5017610;28;45340;-57
2022/10/06 09:58:36;;;;;;;;;2.67;2.00;;;;;16.88;57.80;102572.00;5016995;28;45635;-64
2022/10/06 10:01:08;;;;;;;;;3.33;1.00;;;;;16.93;57.70;102564.59;5017451;28;45383;-64
2022/10/06 10:03:50;;;;;;;;;3.67;1.67;;;;;17.06;57.34;102576.47;5032706;28;45456;-57
2022/10/06 10:06:30;;;;;;;;;4.00;3.33;;;;;17.05;57.07;102579.19;5023866;28;45547;-57
2022/10/06 10:09:20;;;;;;;;;4.33;2.00;;;;;17.14;57.86;102572.50;5039490;28;45843;-58
2022/10/06 10:14:43;;;;;;;;;1.00;1.00;;;;;17.23;56.31;102570.19;5028331;28;45572;-57
2022/10/06 10:17:17;;;;;;;;;5.00;3.00;;;;;17.25;55.18;102575.50;5031933;28;45312;-58
2022/10/06 10:19:51;;;;;;;;;1.00;1.00;;;;;17.21;55.64;102564.03;5034281;28;45291;-58
2022/10/06 10:22:34;;;;;;;;;3.33;2.33;;;;;17.33;55.97;102568.75;5015441;28;45491;-61
2022/10/06 10:25:45;;;;;;;;;2.00;2.00;;;;;17.46;55.42;102557.34;5016918;28;45387;-59
2022/10/06 10:28:19;;;;;;;;;6.67;5.00;;;;;17.64;54.64;102562.59;5016279;28;45544;-57
2022/10/06 10:31:02;;;;;;;;;13.00;5.00;;;;;17.72;54.79;102558.66;5017083;28;45376;-59
2022/10/06 10:33:41;;;;;;;;;4.67;3.00;;;;;17.83;54.50;102561.59;5028921;28;45455;-64
2022/10/06 10:36:11;;;;;;;;;3.33;1.33;;;;;17.84;54.27;102552.56;5017192;28;45438;-69
2022/10/06 10:38:39;;;;;;;;;5.00;2.00;;;;;17.95;53.94;102550.16;5017140;28;45435;-61
2022/10/06 10:41:15;;;;;;;;;7.33;3.33;;;;;18.03;53.19;102549.75;5017239;28;45471;-60
2022/10/06 10:43:54;;;;;;;;;1.67;1.67;;;;;17.90;52.66;102552.25;5016754;28;46302;-66
2022/10/06 10:46:31;;;;;;;;;2.67;1.67;;;;;17.88;53.55;102552.34;5017118;28;45458;-61
2022/10/06 10:49:02;;;;;;;;;3.00;1.00;;;;;17.84;52.91;102549.88;5017054;28;45559;-63
2022/10/06 10:51:37;;;;;;;;;3.67;1.67;;;;;17.86;53.57;102556.06;5015778;28;45788;-58
2022/10/06 10:54:10;;;;;;;;;3.00;2.00;;;;;17.92;52.56;102553.03;5016472;28;46125;-57
2022/10/06 10:56:36;;;;;;;;;3.00;2.00;;;;;17.88;52.53;102554.16;5016255;28;45250;-57
2022/10/06 10:59:29;;;;;;;;;4.00;2.00;;;;;17.93;51.97;102541.31;5014229;28;45734;-57
2022/10/06 11:02:12;;;;;;;;;1.33;1.33;;;;;18.23;52.28;102550.34;5015468;28;45516;-63
2022/10/06 11:04:43;;;;;;;;;4.00;2.00;;;;;18.52;49.49;102551.38;5016067;28;46099;-64
2022/10/06 11:07:36;;;;;;;;;1.00;1.00;;;;;18.67;50.38;102551.44;5014633;28;45425;-65
2022/10/06 11:10:26;;;;;;;;;2.33;1.00;;;;;18.72;50.86;102549.34;5016258;28;45451;-67
2022/10/06 11:13:06;;;;;;;;;3.00;1.33;;;;;18.64;50.77;102546.25;5016578;28;45201;-68
2022/10/06 11:15:50;;;;;;;;;3.33;2.00;;;;;18.66;50.46;102542.50;5015941;28;46035;-63
2022/10/06 11:18:27;;;;;;;;;2.00;2.00;;;;;18.49;48.92;102545.25;5015894;28;45423;-67
2022/10/06 11:21:04;;;;;;;;;2.00;2.00;;;;;18.52;50.25;102542.41;5019341;28;45540;-65
2022/10/06 11:23:52;;;;;;;;;2.00;2.00;;;;;18.46;50.12;102546.31;5008521;28;45340;-59
2022/10/06 11:26:34;;;;;;;;;5.33;3.00;;;;;18.33;49.66;102547.13;5027016;28;46925;-59
2022/10/06 11:29:27;;;;;;;;;2.00;2.00;;;;;18.21;50.10;102544.16;5035170;28;45251;-59
2022/10/06 11:32:22;;;;;;;;;2.00;2.00;;;;;18.20;49.98;102534.34;5035850;28;45446;-62
2022/10/06 11:34:49;;;;;;;;;2.67;1.67;;;;;18.34;50.66;102540.75;5019838;28;45377;-59
2022/10/06 11:37:36;;;;;;;;;5.33;3.67;;;;;18.70;48.18;102540.47;5015588;28;45308;-59
2022/10/06 11:40:41;;;;;;;;;2.00;0.33;;;;;19.02;47.72;102538.56;5030672;28;45382;-59
2022/10/06 11:43:15;;;;;;;;;5.00;3.00;;;;;19.25;46.40;102534.44;5015658;28;45504;-60
2022/10/06 11:45:59;;;;;;;;;1.00;1.00;;;;;19.42;46.36;102527.03;5012577;28;45841;-59
2022/10/06 11:48:28;;;;;;;;;6.00;3.00;;;;;19.63;45.92;102519.44;5013808;28;46151;-59
2022/10/06 11:50:55;;;;;;;;;1.67;1.00;;;;;19.75;45.02;102509.69;5015543;28;45427;-60